Terminal Aerodrome Forecast
Issued by NWS

Home | Current Version | Previous Version | Text Only | Print | Product List | Glossary Off
Versions: 1 2 3 4 5 6 7 8 9 10 11 12 13 14 15 16

559
FTUS43 KUNR 182108 AAA
TAFGCC
TAF AMD
KGCC 182108Z 1821/1918 29010G20KT P6SM SCT110
     FM182300 25009KT P6SM SCT250=

USA.gov is the U.S. government's official web portal to all federal, state and local government web resources and services.